Time;durP1;ratioP1;P1;durP2;ratioP2;P2;SDS_P1;SDS_P2;PMS_P1;PMS_P2;Temp;Humidity;BMP_temperature;BMP_pressure;BME280_temperature;BME280_humidity;BME280_pressure;Samples;Min_cycle;Max_cycle;Signal;HPM_P1;HPM_P2
2021/12/06 00:00:55;;;;;;;34.25;30.63;;;;;;;2.89;92.24;101158.59;4991154;28;20034;-64
2021/12/06 00:03:32;;;;;;;33.88;30.27;;;;;;;2.84;92.58;101159.69;4990051;28;20027;-64
2021/12/06 00:05:57;;;;;;;36.05;31.92;;;;;;;2.85;92.34;101153.66;4962801;28;20030;-64
2021/12/06 00:08:23;;;;;;;36.42;32.58;;;;;;;2.87;92.49;101159.56;4990914;28;20513;-64
2021/12/06 00:10:50;;;;;;;34.47;30.83;;;;;;;2.85;91.98;101161.34;4973397;28;20030;-64
2021/12/06 00:13:20;;;;;;;35.50;31.67;;;;;;;2.88;92.52;101158.66;4990780;28;20025;-63
2021/12/06 00:15:48;;;;;;;34.35;30.65;;;;;;;2.88;92.14;101158.66;4990457;28;20030;-63
2021/12/06 00:18:13;;;;;;;36.08;32.17;;;;;;;2.88;92.01;101161.22;4990375;28;20466;-63
2021/12/06 00:20:39;;;;;;;35.35;31.15;;;;;;;2.89;92.14;101168.00;4990509;28;20030;-63
2021/12/06 00:23:04;;;;;;;36.28;32.47;;;;;;;2.87;92.81;101165.50;4990412;28;20026;-64
2021/12/06 00:25:29;;;;;;;35.95;32.13;;;;;;;2.88;92.85;101171.47;4990647;28;20454;-64
2021/12/06 00:27:55;;;;;;;36.55;32.53;;;;;;;2.88;92.74;101177.41;4990141;28;20435;-64
2021/12/06 00:30:21;;;;;;;36.33;32.58;;;;;;;2.89;92.97;101178.25;4992287;28;20057;-64
2021/12/06 00:32:46;;;;;;;37.80;33.72;;;;;;;2.90;92.53;101174.78;4990349;28;20037;-64
2021/12/06 00:35:18;;;;;;;36.67;32.78;;;;;;;2.87;92.89;101169.81;4987303;28;20573;-64
2021/12/06 00:37:53;;;;;;;36.33;32.45;;;;;;;2.87;92.43;101174.94;4990433;28;20038;-65
2021/12/06 00:40:19;;;;;;;35.42;31.50;;;;;;;2.88;92.48;101176.59;4990082;28;20140;-63
2021/12/06 00:42:45;;;;;;;35.28;31.27;;;;;;;2.87;92.69;101190.31;4973167;28;20555;-64
2021/12/06 00:45:11;;;;;;;35.33;31.63;;;;;;;2.87;92.18;101195.44;4987306;28;20138;-73
2021/12/06 00:47:36;;;;;;;36.28;32.38;;;;;;;2.87;92.25;101205.69;4986712;28;20097;-74
2021/12/06 00:50:06;;;;;;;35.47;31.65;;;;;;;2.87;92.53;101208.22;4986537;28;20040;-64
2021/12/06 00:52:32;;;;;;;36.72;32.83;;;;;;;2.87;92.81;101215.91;4986905;28;20516;-64
2021/12/06 00:54:58;;;;;;;37.10;33.22;;;;;;;2.86;92.77;101224.47;4986447;28;20034;-64
2021/12/06 00:57:24;;;;;;;37.45;33.45;;;;;;;2.87;92.80;101231.28;4986604;28;20034;-64
2021/12/06 00:59:50;;;;;;;36.90;33.00;;;;;;;2.89;92.79;101239.72;4988067;28;20041;-64
2021/12/06 01:02:16;;;;;;;38.40;33.90;;;;;;;2.84;92.70;101242.47;4989904;28;20031;-63
2021/12/06 01:04:43;;;;;;;36.95;32.95;;;;;;;2.85;92.78;101249.25;4989953;28;20080;-65
2021/12/06 01:07:09;;;;;;;36.53;32.53;;;;;;;2.87;92.39;101251.78;4952894;28;1071259;-64
2021/12/06 01:09:34;;;;;;;37.25;33.25;;;;;;;2.88;92.30;101253.44;4990788;28;20048;-63
2021/12/06 01:12:00;;;;;;;38.10;33.88;;;;;;;2.88;93.12;101248.31;4990565;28;20027;-64
2021/12/06 01:14:25;;;;;;;36.85;32.85;;;;;;;2.88;92.70;101238.06;4990776;28;20042;-63
2021/12/06 01:16:52;;;;;;;36.30;32.42;;;;;;;2.85;92.80;101233.91;4990977;28;20033;-63
2021/12/06 01:19:17;;;;;;;36.65;32.75;;;;;;;2.83;92.52;101245.13;4990018;28;20026;-64
2021/12/06 01:21:58;;;;;;;36.95;33.10;;;;;;;2.85;92.31;101238.19;4990726;28;20037;-63
2021/12/06 01:24:29;;;;;;;38.38;33.58;;;;;;;2.84;92.45;101247.59;4972796;28;20030;-64
2021/12/06 01:27:13;;;;;;;36.72;32.47;;;;;;;2.83;92.62;101247.69;4990554;28;20038;-64
2021/12/06 01:30:51;;;;;;;38.95;34.78;;;;;;;2.80;92.69;101245.22;4992508;28;20041;-64
2021/12/06 01:40:27;;;;;;;38.85;34.63;;;;;;;2.72;92.50;101249.88;4994115;28;20092;-63
2021/12/06 01:42:53;;;;;;;38.05;34.05;;;;;;;2.78;92.25;101267.53;4976334;28;20026;-65
2021/12/06 01:45:19;;;;;;;38.83;34.63;;;;;;;2.77;92.81;101263.31;4993894;28;20036;-63
2021/12/06 01:47:46;;;;;;;37.30;33.33;;;;;;;2.76;92.64;101259.09;4994410;28;20117;-63
2021/12/06 01:50:16;;;;;;;37.65;33.63;;;;;;;2.77;92.76;101265.88;4993612;28;20086;-64
2021/12/06 01:52:48;;;;;;;39.13;34.60;;;;;;;2.77;92.67;101265.88;4994211;28;20074;-64
2021/12/06 01:55:20;;;;;;;37.95;33.85;;;;;;;2.78;92.66;101270.91;4993373;28;20033;-63
2021/12/06 01:57:46;;;;;;;37.90;33.28;;;;;;;2.75;92.13;101272.75;4993633;28;20049;-64
2021/12/06 02:00:16;;;;;;;37.40;33.33;;;;;;;2.78;92.20;101277.78;4993457;28;20398;-64
2021/12/06 02:02:42;;;;;;;38.63;34.55;;;;;;;2.74;92.17;101276.22;4992868;28;20034;-63
2021/12/06 02:05:08;;;;;;;39.05;34.88;;;;;;;2.77;92.33;101283.81;4993723;28;20031;-63
2021/12/06 02:07:33;;;;;;;39.30;34.92;;;;;;;2.77;92.43;101282.06;4993506;28;20050;-63
2021/12/06 02:09:59;;;;;;;37.85;33.75;;;;;;;2.79;92.41;101279.44;4993644;28;20065;-65
2021/12/06 02:12:28;;;;;;;37.47;33.58;;;;;;;2.74;92.42;101276.22;4976135;28;20065;-63
2021/12/06 02:15:05;;;;;;;37.83;33.25;;;;;;;2.76;92.24;101274.47;4993481;28;20056;-64
2021/12/06 02:17:37;;;;;;;38.55;34.47;;;;;;;2.71;92.53;101287.44;4978741;28;20037;-64
2021/12/06 02:20:26;;;;;;;36.88;32.83;;;;;;;2.72;92.26;101280.59;4991272;28;20048;-66
2021/12/06 02:22:54;;;;;;;37.20;32.92;;;;;;;2.71;92.17;101286.63;4993127;28;20110;-63
2021/12/06 02:25:20;;;;;;;38.10;34.00;;;;;;;2.69;92.21;101283.28;4965994;28;20390;-63
2021/12/06 02:27:48;;;;;;;38.30;33.45;;;;;;;2.69;92.34;101291.78;4993944;28;20026;-64
2021/12/06 02:30:15;;;;;;;38.83;34.55;;;;;;;2.69;92.23;101288.38;4993636;28;20072;-63
2021/12/06 02:32:41;;;;;;;38.15;34.10;;;;;;;2.70;92.29;101295.22;4993612;28;20037;-65
2021/12/06 02:35:11;;;;;;;41.08;35.78;;;;;;;2.70;92.37;101300.31;4993113;28;20031;-64
2021/12/06 02:37:37;;;;;;;37.75;33.58;;;;;;;2.69;92.51;101303.75;4975514;28;20073;-64
2021/12/06 02:40:13;;;;;;;39.22;34.92;;;;;;;2.70;92.30;101310.56;4993195;28;20030;-64
2021/12/06 02:42:39;;;;;;;38.58;34.42;;;;;;;2.70;92.56;101313.13;4993257;28;20125;-64
2021/12/06 02:45:08;;;;;;;39.88;35.42;;;;;;;2.68;92.86;101313.16;4992645;28;20126;-63
2021/12/06 02:47:34;;;;;;;39.85;34.55;;;;;;;2.71;92.58;101327.59;4975440;28;20040;-63
2021/12/06 02:50:06;;;;;;;38.60;33.88;;;;;;;2.72;92.64;101330.09;4988178;28;20112;-64
2021/12/06 02:52:32;;;;;;;40.42;35.42;;;;;;;2.72;92.35;101324.13;4993069;28;20058;-65
2021/12/06 02:54:59;;;;;;;42.22;35.63;;;;;;;2.70;92.46;101331.06;4992425;28;20077;-65
2021/12/06 02:57:34;;;;;;;40.05;35.58;;;;;;;2.65;92.51;101324.38;4992269;28;20034;-65
2021/12/06 03:00:00;;;;;;;39.92;34.75;;;;;;;2.69;92.28;101329.38;4992591;28;20042;-64
2021/12/06 03:02:30;;;;;;;39.45;35.13;;;;;;;2.69;92.40;101329.38;4992564;28;20462;-64
2021/12/06 03:04:56;;;;;;;39.20;34.95;;;;;;;2.65;92.41;101333.81;4992124;28;20037;-64
2021/12/06 03:07:24;;;;;;;39.83;35.50;;;;;;;2.67;92.25;101337.94;4992556;28;20399;-65
2021/12/06 03:09:53;;;;;;;40.42;35.22;;;;;;;2.64;92.19;101332.97;4992546;28;20105;-64
2021/12/06 03:12:22;;;;;;;39.85;34.92;;;;;;;2.63;92.17;101336.41;4992530;28;20034;-65
2021/12/06 03:14:56;;;;;;;40.08;34.83;;;;;;;2.65;92.48;101329.50;4992528;28;20044;-64
2021/12/06 03:17:24;;;;;;;42.25;35.65;;;;;;;2.65;92.54;101332.06;4975157;28;20041;-63
2021/12/06 03:19:50;;;;;;;41.33;36.83;;;;;;;2.66;92.47;101341.41;4992098;28;20026;-64
2021/12/06 03:22:16;;;;;;;40.55;35.92;;;;;;;2.67;92.44;101335.38;4992149;28;20038;-66
2021/12/06 03:24:43;;;;;;;40.03;35.28;;;;;;;2.66;92.99;101331.16;4970605;28;20038;-64
2021/12/06 03:27:10;;;;;;;40.90;35.95;;;;;;;2.67;92.86;101332.81;4991726;28;20484;-65
2021/12/06 03:29:35;;;;;;;40.15;35.75;;;;;;;2.63;92.60;101335.56;4994385;28;20138;-64
2021/12/06 03:32:02;;;;;;;40.72;34.40;;;;;;;2.64;92.51;101332.97;4992046;28;20058;-64
2021/12/06 03:34:29;;;;;;;40.03;34.83;;;;;;;2.63;92.57;101331.28;4992030;28;20066;-64
2021/12/06 03:36:57;;;;;;;42.85;35.28;;;;;;;2.62;92.92;101334.75;4992015;28;20030;-63
2021/12/06 03:39:27;;;;;;;39.67;34.75;;;;;;;2.61;92.52;101338.19;4991914;28;20042;-63
2021/12/06 03:41:55;;;;;;;43.63;36.65;;;;;;;2.59;92.42;101340.00;4979771;28;20798;-63
2021/12/06 03:44:21;;;;;;;41.67;37.15;;;;;;;2.58;92.72;101333.22;4991717;28;20038;-64
2021/12/06 03:46:50;;;;;;;40.72;36.05;;;;;;;2.56;92.80;101337.53;4989630;28;20065;-64
2021/12/06 03:49:17;;;;;;;41.05;35.78;;;;;;;2.59;93.02;101340.00;4987070;28;20030;-64
2021/12/06 03:51:44;;;;;;;39.63;35.33;;;;;;;2.59;93.01;101342.56;4973443;28;20040;-64
2021/12/06 03:54:16;;;;;;;38.83;34.35;;;;;;;2.57;92.71;101340.94;4991441;28;20069;-63
2021/12/06 03:56:43;;;;;;;43.70;36.80;;;;;;;2.59;92.64;101344.28;4971705;28;20030;-63
2021/12/06 03:59:10;;;;;;;42.22;37.20;;;;;;;2.58;92.50;101340.91;4991895;28;20028;-64
2021/12/06 04:01:36;;;;;;;41.00;36.28;;;;;;;2.56;92.52;101344.41;4990844;28;20448;-64
2021/12/06 04:04:04;;;;;;;41.55;35.42;;;;;;;2.58;92.47;101348.59;4991536;28;20117;-64
2021/12/06 04:06:30;;;;;;;42.10;36.80;;;;;;;2.58;92.77;101343.47;4989000;28;20030;-63
2021/12/06 04:08:56;;;;;;;43.97;36.65;;;;;;;2.57;92.59;101346.88;4991008;28;20499;-63
2021/12/06 04:11:22;;;;;;;41.15;36.63;;;;;;;2.59;92.33;101352.81;4991238;28;20045;-65
2021/12/06 04:13:48;;;;;;;42.95;36.45;;;;;;;2.58;92.79;101355.41;4991515;28;20446;-64
2021/12/06 04:16:14;;;;;;;41.78;36.42;;;;;;;2.60;93.05;101357.03;4974357;28;20033;-63
2021/12/06 04:18:40;;;;;;;40.70;36.03;;;;;;;2.53;93.05;101350.50;4991216;28;20496;-64
2021/12/06 04:21:06;;;;;;;40.63;36.22;;;;;;;2.55;92.87;101353.81;4991047;28;20034;-64
2021/12/06 04:23:34;;;;;;;42.70;36.80;;;;;;;2.51;92.80;101352.25;4990764;28;20418;-64
2021/12/06 04:26:00;;;;;;;41.22;36.55;;;;;;;2.48;92.85;101337.03;4978616;28;20027;-63
2021/12/06 04:28:29;;;;;;;43.33;37.20;;;;;;;2.52;92.55;101343.69;4993362;28;20029;-64
2021/12/06 04:30:55;;;;;;;46.03;35.70;;;;;;;2.52;92.89;101343.69;4974042;28;20077;-64
2021/12/06 04:33:20;;;;;;;45.13;36.00;;;;;;;2.51;92.99;101342.00;4990814;28;20030;-64
2021/12/06 04:35:47;;;;;;;42.75;36.97;;;;;;;2.50;93.17;101347.19;4991192;28;20040;-64
2021/12/06 04:38:14;;;;;;;38.20;33.63;;;;;;;2.43;92.53;101359.41;4991319;28;20029;-63
2021/12/06 04:40:40;;;;;;;41.00;36.60;;;;;;;2.40;92.30;101355.22;4973518;28;20125;-64
2021/12/06 04:43:05;;;;;;;39.13;34.85;;;;;;;2.37;92.38;101349.41;4973644;28;20117;-64
2021/12/06 04:45:31;;;;;;;41.60;36.58;;;;;;;2.41;92.33;101350.97;4988461;28;20035;-64
2021/12/06 04:47:56;;;;;;;40.20;35.30;;;;;;;2.34;92.28;101354.66;4982993;28;20108;-64
2021/12/06 04:50:25;;;;;;;39.42;35.00;;;;;;;2.30;92.43;101358.25;4975784;28;20026;-64
2021/12/06 04:52:53;;;;;;;40.88;34.90;;;;;;;2.31;92.25;101360.72;4979797;28;20026;-64
2021/12/06 04:55:32;;;;;;;40.87;34.90;;;;;;;2.26;92.49;101361.78;4979807;28;20018;-64
2021/12/06 04:57:58;;;;;;;37.97;33.83;;;;;;;2.18;91.97;101368.91;4990024;28;20372;-64
2021/12/06 05:00:48;;;;;;;39.47;33.20;;;;;;;2.15;92.35;101369.06;4990272;28;20145;-64
2021/12/06 05:03:15;;;;;;;37.80;33.17;;;;;;;2.08;91.63;101369.28;4978886;28;20046;-64
2021/12/06 05:05:46;;;;;;;38.30;33.25;;;;;;;2.11;92.31;101369.16;4990841;28;20405;-64
2021/12/06 05:08:26;;;;;;;39.75;34.33;;;;;;;2.06;91.93;101381.28;4995833;28;20098;-64
2021/12/06 05:10:52;;;;;;;38.55;33.67;;;;;;;1.97;91.42;101376.53;4996044;28;20109;-64
2021/12/06 05:13:20;;;;;;;42.25;35.70;;;;;;;1.96;91.61;101384.25;5001306;28;20449;-65
2021/12/06 05:15:46;;;;;;;42.03;35.65;;;;;;;1.88;91.40;101381.13;5013238;28;20042;-63
2021/12/06 05:18:12;;;;;;;41.00;35.30;;;;;;;1.85;91.67;101388.03;5014717;28;20033;-64
2021/12/06 05:20:37;;;;;;;40.28;34.45;;;;;;;1.79;91.60;101382.31;4996374;28;20044;-64
2021/12/06 05:23:06;;;;;;;38.70;33.13;;;;;;;1.71;91.20;101384.28;5001643;28;20029;-65
2021/12/06 05:25:33;;;;;;;36.40;32.45;;;;;;;1.67;91.24;101383.59;4990608;28;20501;-64
2021/12/06 05:27:59;;;;;;;38.63;32.63;;;;;;;1.67;91.32;101382.75;5005486;28;20064;-65
2021/12/06 05:30:26;;;;;;;38.17;32.85;;;;;;;1.65;91.44;101389.63;4995660;28;20025;-64
2021/12/06 05:32:53;;;;;;;36.65;32.25;;;;;;;1.58;91.39;101379.63;4997495;28;20026;-64
2021/12/06 05:35:19;;;;;;;36.70;31.50;;;;;;;1.60;91.40;101382.94;5009057;28;20029;-64
2021/12/06 05:37:51;;;;;;;36.83;32.83;;;;;;;1.57;91.28;101379.69;5013844;28;20100;-63
2021/12/06 05:40:20;;;;;;;34.47;30.77;;;;;;;1.44;91.17;101369.06;5013545;28;20033;-64
2021/12/06 05:42:47;;;;;;;37.75;31.40;;;;;;;1.40;90.97;101375.16;4981417;28;20530;-64
2021/12/06 05:45:15;;;;;;;35.38;30.65;;;;;;;1.37;90.83;101377.81;5008228;28;20067;-64
2021/12/06 05:47:40;;;;;;;35.75;29.10;;;;;;;1.37;90.95;101375.25;5001118;28;20041;-64
2021/12/06 05:50:07;;;;;;;37.78;32.90;;;;;;;1.36;91.47;101388.91;5010214;28;20034;-66
2021/12/06 05:52:33;;;;;;;37.10;31.98;;;;;;;1.35;91.72;101377.03;4996669;28;21129;-68
2021/12/06 05:54:59;;;;;;;38.08;33.33;;;;;;;1.37;91.42;101380.34;5003730;28;20113;-65
2021/12/06 05:57:24;;;;;;;38.78;34.55;;;;;;;1.26;90.91;101385.88;5000716;28;20491;-64
2021/12/06 05:59:50;;;;;;;43.65;38.90;;;;;;;1.21;91.34;101380.06;4995489;28;20026;-64
2021/12/06 06:02:17;;;;;;;38.38;34.33;;;;;;;1.21;90.71;101394.56;5013496;28;20037;-64
2021/12/06 06:04:42;;;;;;;39.58;34.10;;;;;;;1.15;91.09;101397.31;5013782;28;20072;-65
2021/12/06 06:07:08;;;;;;;37.08;32.67;;;;;;;1.13;90.88;101396.53;5012929;28;20030;-64
2021/12/06 06:09:33;;;;;;;35.75;31.75;;;;;;;1.13;91.20;101393.97;5011631;28;20076;-64
2021/12/06 06:11:59;;;;;;;37.58;32.17;;;;;;;1.08;91.35;101395.84;5000301;28;20025;-64
2021/12/06 06:14:25;;;;;;;37.78;31.10;;;;;;;1.11;91.24;101413.63;5000967;28;20033;-64
2021/12/06 06:16:52;;;;;;;47.70;29.00;;;;;;;1.05;91.24;101415.50;5002241;28;20359;-64
2021/12/06 06:19:22;;;;;;;34.40;29.80;;;;;;;1.06;91.87;101412.06;4984938;28;20501;-64
2021/12/06 06:21:48;;;;;;;39.40;27.77;;;;;;;0.97;91.32;101416.63;5000337;28;20030;-64
2021/12/06 06:24:14;;;;;;;31.42;28.02;;;;;;;0.95;91.71;101424.34;5012162;28;20064;-64
2021/12/06 06:26:40;;;;;;;28.42;25.38;;;;;;;0.88;91.54;101422.88;5012501;28;20351;-64
2021/12/06 06:29:07;;;;;;;29.17;26.08;;;;;;;0.88;91.24;101427.97;5012591;28;20488;-64
2021/12/06 06:31:32;;;;;;;29.02;25.92;;;;;;;0.87;91.74;101431.41;4994960;28;20440;-64
2021/12/06 06:33:58;;;;;;;28.35;25.35;;;;;;;0.85;91.86;101428.06;5012374;28;20105;-64
2021/12/06 06:36:23;;;;;;;27.90;24.38;;;;;;;0.86;91.47;101429.75;5005466;28;20030;-64
2021/12/06 06:38:48;;;;;;;34.03;22.63;;;;;;;0.84;91.86;101426.41;4999101;28;20033;-64
2021/12/06 06:41:14;;;;;;;43.33;23.27;;;;;;;0.80;91.90;101406.94;5002461;28;20033;-65
2021/12/06 06:43:39;;;;;;;28.30;21.92;;;;;;;0.89;91.83;101429.66;5010783;28;20030;-64
2021/12/06 06:46:06;;;;;;;31.20;22.88;;;;;;;0.89;92.35;101427.09;5012372;28;20040;-64
2021/12/06 06:48:32;;;;;;;38.58;24.08;;;;;;;0.89;92.33;101419.44;5012548;28;20029;-64
2021/12/06 06:50:58;;;;;;;33.03;25.33;;;;;;;0.86;92.30;101424.66;4985712;28;20070;-64
2021/12/06 06:53:26;;;;;;;43.60;24.17;;;;;;;0.88;92.38;101424.59;5009711;28;20029;-64
2021/12/06 06:55:52;;;;;;;26.67;23.83;;;;;;;0.89;92.33;101424.53;5007651;28;20451;-65
2021/12/06 06:58:17;;;;;;;29.55;26.38;;;;;;;0.91;92.45;101434.69;5008852;28;20289;-64
2021/12/06 07:00:42;;;;;;;30.42;26.73;;;;;;;0.89;92.31;101434.75;5012331;28;20165;-64
2021/12/06 07:05:41;;;;;;;35.33;30.15;;;;;;;0.93;92.73;101441.44;4991291;28;20061;-65
2021/12/06 07:10:37;;;;;;;36.30;30.23;;;;;;;0.91;92.92;101422.75;4970626;28;20050;-65
2021/12/06 07:13:07;;;;;;;39.42;32.40;;;;;;;1.01;92.82;101436.06;4971434;28;20029;-65
2021/12/06 07:15:34;;;;;;;42.47;33.83;;;;;;;1.00;93.01;101448.03;4971687;28;20026;-65
2021/12/06 07:18:01;;;;;;;53.78;40.35;;;;;;;1.02;92.74;101446.25;4972941;28;20116;-64
2021/12/06 07:20:27;;;;;;;46.33;37.90;;;;;;;1.02;93.45;101451.34;4971011;28;20034;-64
2021/12/06 07:22:53;;;;;;;43.53;34.40;;;;;;;1.05;93.21;101456.38;4953818;28;20521;-65
2021/12/06 07:25:21;;;;;;;42.22;34.70;;;;;;;1.04;93.42;101454.72;4955586;28;20386;-65
2021/12/06 07:27:47;;;;;;;42.63;31.38;;;;;;;1.10;93.31;101468.16;4958074;28;20033;-64
2021/12/06 07:30:15;;;;;;;58.92;37.38;;;;;;;1.09;93.53;101456.25;4971599;28;20038;-66
2021/12/06 07:32:42;;;;;;;44.20;34.17;;;;;;;1.12;93.65;101466.41;4972071;28;20483;-66
2021/12/06 07:35:09;;;;;;;47.45;36.42;;;;;;;1.11;93.62;101468.13;4970153;28;20498;-64
2021/12/06 07:37:34;;;;;;;44.30;35.83;;;;;;;1.10;93.36;101470.72;4964888;28;20023;-64
2021/12/06 07:40:00;;;;;;;44.05;34.40;;;;;;;1.12;93.82;101484.28;4972501;28;20482;-64
2021/12/06 07:42:26;;;;;;;44.60;36.42;;;;;;;1.13;94.21;101473.16;4973410;28;20038;-64
2021/12/06 07:44:52;;;;;;;70.63;37.25;;;;;;;1.16;94.04;101473.09;4971063;28;20391;-65
2021/12/06 07:47:18;;;;;;;53.95;38.33;;;;;;;1.15;94.24;101461.16;4972653;28;20505;-65
2021/12/06 07:49:44;;;;;;;61.65;35.90;;;;;;;1.18;94.06;101453.41;4971357;28;20034;-65
2021/12/06 07:52:10;;;;;;;61.42;39.55;;;;;;;1.19;94.52;101452.53;4955830;28;20034;-64
2021/12/06 07:54:36;;;;;;;68.75;39.55;;;;;;;1.17;94.35;101446.66;4956343;28;20466;-64
2021/12/06 07:57:02;;;;;;;54.75;37.22;;;;;;;1.18;94.44;101450.88;4969108;28;20031;-64
2021/12/06 07:59:28;;;;;;;42.83;35.40;;;;;;;1.19;94.59;101449.97;4971198;28;20038;-64
2021/12/06 08:01:53;;;;;;;48.35;37.10;;;;;;;1.16;94.27;101450.09;4968300;28;20355;-65
2021/12/06 08:04:19;;;;;;;49.22;36.05;;;;;;;1.22;94.67;101444.78;4954149;28;20522;-66
2021/12/06 08:06:45;;;;;;;44.92;37.53;;;;;;;1.25;94.99;101442.09;4972099;28;20027;-63
2021/12/06 08:09:10;;;;;;;50.55;38.65;;;;;;;1.26;94.82;101433.56;4962015;28;20349;-64
2021/12/06 08:11:36;;;;;;;49.72;37.70;;;;;;;1.27;94.81;101437.81;4960557;28;20037;-64
2021/12/06 08:14:02;;;;;;;43.97;36.83;;;;;;;1.24;94.44;101430.22;4963948;28;20023;-65
2021/12/06 08:16:42;;;;;;;43.47;35.60;;;;;;;1.24;94.62;101420.00;4953840;28;20041;-65
2021/12/06 08:19:08;;;;;;;43.42;36.40;;;;;;;1.27;94.87;101425.84;4962217;28;20030;-64
2021/12/06 08:21:34;;;;;;;43.30;36.03;;;;;;;1.29;94.54;101433.47;4971336;28;20039;-65
2021/12/06 08:24:02;;;;;;;54.40;37.85;;;;;;;1.27;94.85;101425.84;4971440;28;20063;-65
2021/12/06 08:26:33;;;;;;;44.13;34.33;;;;;;;1.32;94.81;101438.50;4954383;28;20558;-65
2021/12/06 08:28:59;;;;;;;47.83;36.97;;;;;;;1.33;94.61;101435.03;4971503;28;20038;-64
2021/12/06 08:31:27;;;;;;;48.90;38.53;;;;;;;1.34;95.05;101446.94;4967747;28;20027;-65
2021/12/06 08:33:53;;;;;;;47.13;37.60;;;;;;;1.32;94.48;101451.25;4950504;28;20085;-65
2021/12/06 08:36:19;;;;;;;51.90;38.65;;;;;;;1.35;94.85;101446.03;4971933;28;20042;-65
2021/12/06 08:38:46;;;;;;;59.30;40.83;;;;;;;1.37;94.37;101451.09;4971254;28;20034;-64
2021/12/06 08:41:15;;;;;;;51.67;38.88;;;;;;;1.39;94.78;101465.50;4954356;28;20039;-64
2021/12/06 08:43:41;;;;;;;;;;;;;;;1.49;94.95;101472.00;4971550;28;20035;-65
2021/12/06 08:46:23;;;;;;;58.80;38.40;;;;;;;1.43;95.10;101477.28;4970942;28;19918;-65
2021/12/06 08:48:50;;;;;;;65.25;43.85;;;;;;;1.37;95.01;101467.25;4959389;28;20033;-64
2021/12/06 08:51:23;;;;;;;64.53;41.88;;;;;;;1.42;95.18;101474.78;4971500;28;20125;-64
2021/12/06 08:53:49;;;;;;;66.10;42.40;;;;;;;1.38;95.20;101471.50;4971264;28;20543;-64
2021/12/06 08:56:15;;;;;;;68.65;44.33;;;;;;;1.39;95.14;101475.72;4965484;28;20341;-64
2021/12/06 08:58:41;;;;;;;78.43;48.47;;;;;;;1.45;94.89;101475.53;4966310;28;20495;-65
2021/12/06 09:01:08;;;;;;;75.80;49.28;;;;;;;1.44;95.50;101478.97;4970314;28;20122;-64
2021/12/06 09:03:35;;;;;;;70.25;46.35;;;;;;;1.45;95.78;101493.41;4971040;28;20521;-64
2021/12/06 09:06:03;;;;;;;74.40;47.08;;;;;;;1.46;95.43;101484.84;4971174;28;20031;-65
2021/12/06 09:08:29;;;;;;;78.03;47.90;;;;;;;1.49;95.38;101492.44;4954706;28;20027;-64
2021/12/06 09:10:54;;;;;;;85.82;51.58;;;;;;;1.45;95.36;101485.75;4987109;28;20324;-64
2021/12/06 09:13:23;;;;;;;74.95;50.30;;;;;;;1.49;95.72;101487.31;4991048;28;20022;-64
2021/12/06 09:15:49;;;;;;;79.80;49.70;;;;;;;1.53;95.21;101488.88;4990331;28;20045;-64
2021/12/06 09:18:15;;;;;;;84.38;50.92;;;;;;;1.52;95.66;101481.25;4991041;28;20046;-64
2021/12/06 09:20:43;;;;;;;76.22;48.72;;;;;;;1.54;95.90;101482.88;4977119;28;20073;-65
2021/12/06 09:23:09;;;;;;;75.67;46.73;;;;;;;1.56;95.87;101481.09;4990964;28;20458;-65
2021/12/06 09:25:38;;;;;;;80.20;50.65;;;;;;;1.57;95.68;101485.34;4989334;28;20835;-64
2021/12/06 09:28:04;;;;;;;75.55;49.60;;;;;;;1.56;96.06;101473.44;4990709;28;20375;-64
2021/12/06 09:30:32;;;;;;;80.43;51.10;;;;;;;1.63;96.04;101486.00;4989625;28;20503;-64
2021/12/06 09:33:00;;;;;;;81.70;50.60;;;;;;;1.64;95.88;101492.78;4990587;28;20072;-64
2021/12/06 09:35:28;;;;;;;81.28;51.35;;;;;;;1.64;95.76;101485.13;4987279;28;20034;-65
2021/12/06 09:37:56;;;;;;;79.60;47.92;;;;;;;1.70;95.79;101477.25;4990534;28;20037;-64
2021/12/06 09:40:23;;;;;;;77.63;47.77;;;;;;;1.71;96.11;101471.22;4990466;28;20482;-64
2021/12/06 09:42:49;;;;;;;85.38;52.67;;;;;;;1.71;95.90;101471.22;4990943;28;20377;-64
2021/12/06 09:45:23;;;;;;;75.95;48.50;;;;;;;1.76;95.79;101485.53;4989675;28;20075;-64
2021/12/06 09:47:51;;;;;;;78.15;50.47;;;;;;;1.78;96.32;101486.34;4986459;28;20077;-64
2021/12/06 09:50:35;;;;;;;78.10;51.45;;;;;;;1.81;95.87;101487.94;4989762;28;20109;-64
2021/12/06 09:53:05;;;;;;;81.88;49.20;;;;;;;1.83;95.64;101491.25;4973632;28;20415;-64
2021/12/06 09:55:32;;;;;;;80.45;50.95;;;;;;;1.83;95.53;101491.25;4990052;28;20030;-65
2021/12/06 09:57:58;;;;;;;79.20;49.83;;;;;;;1.86;95.48;101491.19;4983610;28;20030;-65
2021/12/06 10:00:26;;;;;;;73.97;46.90;;;;;;;1.86;95.50;101488.63;4992625;28;20034;-64
2021/12/06 10:02:52;;;;;;;74.80;47.10;;;;;;;1.87;95.43;101490.28;4994064;28;20076;-65
2021/12/06 10:05:18;;;;;;;82.40;49.10;;;;;;;1.85;95.40;101485.22;4992757;28;20064;-64
2021/12/06 10:07:44;;;;;;;71.18;44.97;;;;;;;1.84;95.78;101487.84;4975746;28;20077;-64
2021/12/06 10:10:12;;;;;;;71.82;44.83;;;;;;;1.86;95.38;101486.06;4984330;28;20050;-65
2021/12/06 10:12:38;;;;;;;70.75;44.42;;;;;;;1.89;95.62;101475.72;4991051;28;20121;-66
2021/12/06 10:15:05;;;;;;;70.68;46.00;;;;;;;1.90;95.39;101476.56;4989997;28;20522;-65
2021/12/06 10:17:32;;;;;;;69.25;44.42;;;;;;;1.91;95.84;101468.84;4990972;28;20387;-65
2021/12/06 10:19:59;;;;;;;73.28;47.15;;;;;;;1.95;95.82;101465.28;4990805;28;20089;-64
2021/12/06 10:22:26;;;;;;;75.15;45.85;;;;;;;1.95;95.96;101455.06;4989984;28;20557;-65
2021/12/06 10:24:54;;;;;;;68.87;42.33;;;;;;;1.94;95.78;101432.91;4990827;28;20035;-65
2021/12/06 10:27:20;;;;;;;77.38;45.08;;;;;;;1.97;95.43;101442.19;4990887;28;20034;-65
2021/12/06 10:29:49;;;;;;;75.32;45.72;;;;;;;2.00;95.86;101432.66;4991370;28;20034;-64
2021/12/06 10:32:18;;;;;;;77.05;45.08;;;;;;;1.99;95.66;101443.81;4989634;28;20112;-65
2021/12/06 10:34:52;;;;;;;76.57;45.95;;;;;;;2.01;95.60;101444.59;4974820;28;20133;-64
2021/12/06 10:37:45;;;;;;;82.22;47.08;;;;;;;2.09;95.75;101446.88;4975709;28;20038;-65
2021/12/06 10:40:43;;;;;;;79.55;46.55;;;;;;;2.06;95.43;101442.69;4990165;28;20112;-65
2021/12/06 10:43:10;;;;;;;84.70;47.80;;;;;;;2.05;95.38;101441.03;4987654;28;20038;-64
2021/12/06 10:45:42;;;;;;;82.57;46.88;;;;;;;2.08;95.08;101434.97;4990679;28;20047;-65
2021/12/06 10:48:13;;;;;;;93.90;49.35;;;;;;;2.08;95.33;101429.84;4992335;28;20113;-64
2021/12/06 10:50:53;;;;;;;98.68;50.08;;;;;;;2.08;95.13;101417.91;4992408;28;20410;-67
2021/12/06 10:53:22;;;;;;;103.53;48.60;;;;;;;2.11;95.49;101411.81;4972234;28;20328;-64
2021/12/06 10:55:50;;;;;;;108.60;48.47;;;;;;;2.08;95.63;101399.97;4990533;28;20031;-64
2021/12/06 10:58:19;;;;;;;111.63;47.97;;;;;;;2.13;95.11;101392.97;4985857;28;20092;-64
2021/12/06 11:00:49;;;;;;;106.82;49.15;;;;;;;2.10;94.65;101389.69;4992293;28;20042;-64
2021/12/06 11:03:30;;;;;;;107.53;49.05;;;;;;;2.10;95.47;101382.84;4992811;28;20066;-67
2021/12/06 11:06:04;;;;;;;108.30;49.83;;;;;;;2.08;95.23;101384.63;4975557;28;20026;-64
2021/12/06 11:08:34;;;;;;;101.00;46.67;;;;;;;2.06;94.50;101376.16;4983358;28;20447;-64
2021/12/06 11:11:09;;;;;;;104.28;46.38;;;;;;;2.08;95.13;101384.63;4991766;28;20045;-65
2021/12/06 11:13:38;;;;;;;94.63;45.63;;;;;;;2.06;94.86;101381.28;4991391;28;20019;-66
2021/12/06 11:16:16;;;;;;;97.97;46.25;;;;;;;2.13;95.02;101374.22;4991138;28;20045;-64
2021/12/06 11:18:57;;;;;;;83.05;42.22;;;;;;;2.12;94.56;101369.97;4992315;28;20030;-64
2021/12/06 11:21:34;;;;;;;85.28;42.15;;;;;;;2.14;94.77;101363.09;4973257;28;20034;-65
2021/12/06 11:24:39;;;;;;;88.60;43.13;;;;;;;2.20;94.60;101356.91;4990896;28;20042;-66
2021/12/06 11:27:08;;;;;;;86.60;43.47;;;;;;;2.15;94.06;101346.03;4988960;28;20035;-64
2021/12/06 11:29:42;;;;;;;88.90;44.63;;;;;;;2.18;94.01;101343.31;4990246;28;20038;-65
2021/12/06 11:32:21;;;;;;;88.55;43.30;;;;;;;2.22;94.33;101337.22;4991711;28;20556;-64
2021/12/06 11:35:20;;;;;;;80.38;43.80;;;;;;;2.26;94.38;101347.28;4983817;28;20089;-65